sensor_id;sensor_type;location;lat;lon;timestamp;P1;durP1;ratioP1;P2;durP2;ratioP2
71671;SDS011;67659;45.554;11.812;2023-10-31T19:29:23;13.93;;;8.90;;
71671;SDS011;67659;45.554;11.812;2023-10-31T19:31:49;17.30;;;9.88;;
71671;SDS011;67659;45.554;11.812;2023-10-31T19:34:15;14.83;;;9.20;;
71671;SDS011;67659;45.554;11.812;2023-10-31T19:36:41;16.50;;;9.50;;
71671;SDS011;67659;45.554;11.812;2023-10-31T19:39:07;13.57;;;8.80;;
71671;SDS011;67659;45.554;11.812;2023-10-31T19:41:32;13.27;;;8.75;;
71671;SDS011;67659;45.554;11.812;2023-10-31T19:43:59;16.13;;;10.25;;
71671;SDS011;67659;45.554;11.812;2023-10-31T19:46:25;14.60;;;9.43;;
71671;SDS011;67659;45.554;11.812;2023-10-31T19:48:51;15.05;;;9.45;;
71671;SDS011;67659;45.554;11.812;2023-10-31T19:51:19;17.30;;;10.48;;
71671;SDS011;67659;45.554;11.812;2023-10-31T19:53:45;17.20;;;11.38;;
71671;SDS011;67659;45.554;11.812;2023-10-31T19:56:17;18.57;;;10.93;;
71671;SDS011;67659;45.554;11.812;2023-10-31T19:58:44;14.93;;;10.07;;
71671;SDS011;67659;45.554;11.812;2023-10-31T20:01:10;15.98;;;9.55;;
71671;SDS011;67659;45.554;11.812;2023-10-31T20:03:36;16.02;;;9.57;;
71671;SDS011;67659;45.554;11.812;2023-10-31T20:06:02;16.20;;;9.98;;
71671;SDS011;67659;45.554;11.812;2023-10-31T20:08:31;15.97;;;9.97;;
71671;SDS011;67659;45.554;11.812;2023-10-31T20:10:57;13.93;;;7.82;;
71671;SDS011;67659;45.554;11.812;2023-10-31T20:13:23;13.60;;;8.90;;
71671;SDS011;67659;45.554;11.812;2023-10-31T20:15:49;16.13;;;9.50;;
71671;SDS011;67659;45.554;11.812;2023-10-31T20:18:17;14.23;;;9.43;;
71671;SDS011;67659;45.554;11.812;2023-10-31T20:20:44;17.80;;;10.32;;
71671;SDS011;67659;45.554;11.812;2023-10-31T20:23:18;17.35;;;11.13;;
71671;SDS011;67659;45.554;11.812;2023-10-31T20:25:44;18.40;;;10.10;;
71671;SDS011;67659;45.554;11.812;2023-10-31T20:28:10;26.37;;;17.30;;
71671;SDS011;67659;45.554;11.812;2023-10-31T20:30:36;23.40;;;16.50;;
71671;SDS011;67659;45.554;11.812;2023-10-31T20:33:02;24.23;;;14.23;;
71671;SDS011;67659;45.554;11.812;2023-10-31T20:35:28;21.35;;;13.63;;
71671;SDS011;67659;45.554;11.812;2023-10-31T20:37:55;19.50;;;12.63;;
71671;SDS011;67659;45.554;11.812;2023-10-31T20:40:22;18.85;;;11.10;;
71671;SDS011;67659;45.554;11.812;2023-10-31T20:42:49;20.75;;;11.60;;
71671;SDS011;67659;45.554;11.812;2023-10-31T20:45:15;15.32;;;9.88;;
71671;SDS011;67659;45.554;11.812;2023-10-31T20:47:41;16.97;;;10.50;;
71671;SDS011;67659;45.554;11.812;2023-10-31T20:50:08;17.80;;;10.73;;
71671;SDS011;67659;45.554;11.812;2023-10-31T20:52:35;16.25;;;9.98;;
71671;SDS011;67659;45.554;11.812;2023-10-31T20:55:02;16.98;;;9.65;;
71671;SDS011;67659;45.554;11.812;2023-10-31T20:57:30;17.30;;;10.25;;
71671;SDS011;67659;45.554;11.812;2023-10-31T20:59:57;15.45;;;9.48;;
71671;SDS011;67659;45.554;11.812;2023-10-31T21:02:23;15.03;;;9.37;;
71671;SDS011;67659;45.554;11.812;2023-10-31T21:04:50;15.60;;;9.23;;
71671;SDS011;67659;45.554;11.812;2023-10-31T21:07:16;14.13;;;8.52;;
71671;SDS011;67659;45.554;11.812;2023-10-31T21:09:44;14.52;;;8.85;;
71671;SDS011;67659;45.554;11.812;2023-10-31T21:12:10;13.75;;;8.80;;
71671;SDS011;67659;45.554;11.812;2023-10-31T21:14:38;13.27;;;8.33;;
71671;SDS011;67659;45.554;11.812;2023-10-31T21:17:04;17.85;;;8.35;;
71671;SDS011;67659;45.554;11.812;2023-10-31T21:19:31;13.85;;;8.38;;
71671;SDS011;67659;45.554;11.812;2023-10-31T21:22:01;12.30;;;7.90;;
71671;SDS011;67659;45.554;11.812;2023-10-31T21:24:28;15.50;;;8.82;;
71671;SDS011;67659;45.554;11.812;2023-10-31T21:26:54;15.67;;;8.80;;
71671;SDS011;67659;45.554;11.812;2023-10-31T21:29:21;12.70;;;7.78;;
71671;SDS011;67659;45.554;11.812;2023-10-31T21:31:46;13.82;;;8.00;;
71671;SDS011;67659;45.554;11.812;2023-10-31T21:34:12;11.40;;;7.17;;
71671;SDS011;67659;45.554;11.812;2023-10-31T21:36:39;13.02;;;8.00;;
71671;SDS011;67659;45.554;11.812;2023-10-31T21:39:05;12.82;;;7.75;;
71671;SDS011;67659;45.554;11.812;2023-10-31T21:41:30;12.00;;;7.20;;
71671;SDS011;67659;45.554;11.812;2023-10-31T21:43:56;10.85;;;7.03;;
71671;SDS011;67659;45.554;11.812;2023-10-31T21:46:22;11.20;;;6.90;;
71671;SDS011;67659;45.554;11.812;2023-10-31T21:48:48;10.57;;;6.93;;
71671;SDS011;67659;45.554;11.812;2023-10-31T21:51:14;11.75;;;6.93;;
71671;SDS011;67659;45.554;11.812;2023-10-31T21:53:40;10.30;;;6.55;;
71671;SDS011;67659;45.554;11.812;2023-10-31T21:56:06;12.00;;;6.70;;
71671;SDS011;67659;45.554;11.812;2023-10-31T21:58:32;10.83;;;6.43;;
71671;SDS011;67659;45.554;11.812;2023-10-31T22:00:58;10.45;;;6.10;;
71671;SDS011;67659;45.554;11.812;2023-10-31T22:03:24;11.93;;;6.30;;
71671;SDS011;67659;45.554;11.812;2023-10-31T22:05:50;11.33;;;6.23;;
71671;SDS011;67659;45.554;11.812;2023-10-31T22:08:16;9.85;;;5.32;;
71671;SDS011;67659;45.554;11.812;2023-10-31T22:10:43;9.45;;;5.40;;
71671;SDS011;67659;45.554;11.812;2023-10-31T22:13:09;9.13;;;5.15;;
71671;SDS011;67659;45.554;11.812;2023-10-31T22:15:35;9.67;;;5.20;;
71671;SDS011;67659;45.554;11.812;2023-10-31T22:18:00;8.88;;;5.30;;
71671;SDS011;67659;45.554;11.812;2023-10-31T22:20:26;10.20;;;4.75;;
71671;SDS011;67659;45.554;11.812;2023-10-31T22:22:53;12.07;;;5.30;;
71671;SDS011;67659;45.554;11.812;2023-10-31T22:25:18;9.95;;;5.20;;
71671;SDS011;67659;45.554;11.812;2023-10-31T22:27:44;9.37;;;5.33;;
71671;SDS011;67659;45.554;11.812;2023-10-31T22:30:10;9.75;;;5.38;;
71671;SDS011;67659;45.554;11.812;2023-10-31T22:32:36;9.25;;;5.38;;
71671;SDS011;67659;45.554;11.812;2023-10-31T22:35:02;10.33;;;5.90;;
71671;SDS011;67659;45.554;11.812;2023-10-31T22:37:29;10.27;;;5.65;;
71671;SDS011;67659;45.554;11.812;2023-10-31T22:39:54;10.18;;;5.88;;
71671;SDS011;67659;45.554;11.812;2023-10-31T22:42:20;9.55;;;5.70;;
71671;SDS011;67659;45.554;11.812;2023-10-31T22:44:46;8.93;;;5.17;;
71671;SDS011;67659;45.554;11.812;2023-10-31T22:47:12;9.30;;;5.40;;
71671;SDS011;67659;45.554;11.812;2023-10-31T22:49:37;9.90;;;5.20;;
71671;SDS011;67659;45.554;11.812;2023-10-31T22:52:03;8.90;;;4.93;;
71671;SDS011;67659;45.554;11.812;2023-10-31T22:54:29;9.75;;;5.13;;
71671;SDS011;67659;45.554;11.812;2023-10-31T22:56:55;10.07;;;5.13;;
71671;SDS011;67659;45.554;11.812;2023-10-31T22:59:21;9.70;;;5.80;;
71671;SDS011;67659;45.554;11.812;2023-10-31T23:01:47;9.25;;;5.38;;
71671;SDS011;67659;45.554;11.812;2023-10-31T23:04:13;9.80;;;4.90;;
71671;SDS011;67659;45.554;11.812;2023-10-31T23:06:39;9.30;;;5.18;;
71671;SDS011;67659;45.554;11.812;2023-10-31T23:09:05;8.52;;;4.80;;
71671;SDS011;67659;45.554;11.812;2023-10-31T23:11:31;9.43;;;4.60;;
71671;SDS011;67659;45.554;11.812;2023-10-31T23:13:56;8.35;;;4.68;;
71671;SDS011;67659;45.554;11.812;2023-10-31T23:16:22;7.88;;;4.57;;
71671;SDS011;67659;45.554;11.812;2023-10-31T23:18:48;9.70;;;4.43;;
71671;SDS011;67659;45.554;11.812;2023-10-31T23:21:14;10.00;;;4.97;;
71671;SDS011;67659;45.554;11.812;2023-10-31T23:23:40;8.95;;;4.80;;
71671;SDS011;67659;45.554;11.812;2023-10-31T23:26:05;9.10;;;4.57;;
71671;SDS011;67659;45.554;11.812;2023-10-31T23:28:31;8.98;;;4.80;;
71671;SDS011;67659;45.554;11.812;2023-10-31T23:30:59;8.38;;;4.55;;
71671;SDS011;67659;45.554;11.812;2023-10-31T23:33:25;10.68;;;4.93;;
71671;SDS011;67659;45.554;11.812;2023-10-31T23:35:52;8.77;;;5.00;;
71671;SDS011;67659;45.554;11.812;2023-10-31T23:38:17;8.63;;;4.72;;
